Time;durP1;ratioP1;P1;durP2;ratioP2;P2;SDS_P1;SDS_P2;PMS_P1;PMS_P2;Temp;Humidity;BMP_temperature;BMP_pressure;BME280_temperature;BME280_humidity;BME280_pressure;Samples;Min_cycle;Max_cycle;Signal;HPM_P1;HPM_P2
2023/04/02 00:01:26;;;;;;;5.88;5.28;;;6.90;99.90;;;;;;5060155;28;20216;-76
2023/04/02 00:04:22;;;;;;;5.10;4.60;;;7.00;99.90;;;;;;5050794;28;20232;-76
2023/04/02 00:06:56;;;;;;;6.13;4.80;;;7.00;99.90;;;;;;5070484;28;20307;-76
2023/04/02 00:09:31;;;;;;;6.63;4.80;;;7.10;99.90;;;;;;5092057;28;20242;-76
2023/04/02 00:11:59;;;;;;;7.15;4.45;;;7.00;99.90;;;;;;5080211;28;20227;-76
2023/04/02 00:14:32;;;;;;;4.57;3.85;;;7.00;99.90;;;;;;5052384;28;20232;-76
2023/04/02 00:17:02;;;;;;;5.78;4.97;;;6.90;99.90;;;;;;5067026;28;20223;-76
2023/04/02 00:19:35;;;;;;;6.15;4.97;;;6.90;99.90;;;;;;5071475;28;20285;-76
2023/04/02 00:22:14;;;;;;;5.78;5.32;;;6.80;99.90;;;;;;5071649;28;20575;-76
2023/04/02 00:24:41;;;;;;;3.75;3.28;;;6.80;99.90;;;;;;5072033;28;20228;-75
2023/04/02 00:27:17;;;;;;;7.32;4.55;;;6.70;99.90;;;;;;5071685;28;20231;-75
2023/04/02 00:29:53;;;;;;;4.85;4.45;;;6.70;99.90;;;;;;5071361;28;20239;-77
2023/04/02 00:32:25;;;;;;;6.93;4.07;;;6.60;99.90;;;;;;5073032;28;20230;-77
2023/04/02 00:34:52;;;;;;;4.90;4.50;;;6.60;99.90;;;;;;5075475;28;20228;-76
2023/04/02 00:37:23;;;;;;;3.92;3.63;;;6.60;99.90;;;;;;5076161;28;20566;-76
2023/04/02 00:40:00;;;;;;;6.07;4.50;;;6.60;99.90;;;;;;5075111;28;20231;-77
2023/04/02 00:42:30;;;;;;;4.95;4.65;;;6.60;99.90;;;;;;5075812;28;20323;-76
2023/04/02 00:44:59;;;;;;;5.07;4.57;;;6.70;99.90;;;;;;5074854;28;20311;-76
2023/04/02 00:47:33;;;;;;;4.78;4.38;;;6.70;99.90;;;;;;5075315;28;20289;-76
2023/04/02 00:50:05;;;;;;;5.03;4.63;;;6.70;99.90;;;;;;5074871;28;20224;-76
2023/04/02 00:52:36;;;;;;;5.53;5.03;;;6.70;99.90;;;;;;5076093;28;20253;-76
2023/04/02 00:55:09;;;;;;;4.63;4.20;;;6.70;99.90;;;;;;5074580;28;20281;-77
2023/04/02 00:57:41;;;;;;;4.25;3.80;;;6.70;99.90;;;;;;5075782;28;20307;-76
2023/04/02 01:00:22;;;;;;;5.93;5.35;;;6.60;99.90;;;;;;5074483;28;20545;-76
2023/04/02 01:03:27;;;;;;;6.72;4.60;;;6.60;99.90;;;;;;5073358;28;20285;-77
2023/04/02 01:06:02;;;;;;;4.85;4.45;;;6.50;99.90;;;;;;5064779;28;20282;-77
2023/04/02 01:08:37;;;;;;;5.32;4.80;;;6.50;99.90;;;;;;5062146;28;20575;-76
2023/04/02 01:11:14;;;;;;;5.30;4.90;;;6.60;99.90;;;;;;5063235;28;20232;-77
2023/04/02 01:13:51;;;;;;;5.47;4.90;;;6.50;99.90;;;;;;5075223;28;20277;-77
2023/04/02 01:16:30;;;;;;;9.13;5.38;;;6.60;99.90;;;;;;5074468;28;20212;-76
2023/04/02 01:19:09;;;;;;;5.20;4.80;;;6.60;99.90;;;;;;5055666;28;20224;-76
2023/04/02 01:21:52;;;;;;;6.20;5.15;;;6.60;99.90;;;;;;5054972;28;20627;-76
2023/04/02 01:24:25;;;;;;;5.60;4.05;;;6.60;99.90;;;;;;5054657;28;20611;-76
2023/04/02 01:27:02;;;;;;;5.85;4.57;;;6.60;99.90;;;;;;5054927;28;20299;-77
2023/04/02 01:29:34;;;;;;;5.80;4.20;;;6.60;99.90;;;;;;5038032;28;20253;-76
2023/04/02 01:32:04;;;;;;;7.20;4.68;;;6.50;99.90;;;;;;5074850;28;20224;-76
2023/04/02 01:34:32;;;;;;;4.05;3.60;;;6.50;99.90;;;;;;5072965;28;20239;-76
2023/04/02 01:37:12;;;;;;;6.07;4.25;;;6.50;99.90;;;;;;5073585;28;20228;-76
2023/04/02 01:39:55;;;;;;;5.03;4.50;;;6.60;99.90;;;;;;5071424;28;20322;-76
2023/04/02 01:42:26;;;;;;;6.72;5.07;;;6.60;99.90;;;;;;5073131;28;20681;-76
2023/04/02 01:45:01;;;;;;;5.78;4.05;;;6.60;99.90;;;;;;5072439;28;20231;-76
2023/04/02 01:47:28;;;;;;;4.38;3.95;;;6.60;99.90;;;;;;5073089;28;20223;-76
2023/04/02 01:49:59;;;;;;;4.05;3.63;;;6.60;99.90;;;;;;5065888;28;20238;-75
2023/04/02 01:52:37;;;;;;;4.00;3.60;;;6.60;99.90;;;;;;5072780;28;20235;-75
2023/04/02 01:55:06;;;;;;;6.10;4.57;;;6.60;99.90;;;;;;5073016;28;20219;-75
2023/04/02 01:57:34;;;;;;;4.70;3.75;;;6.60;99.90;;;;;;5074255;28;20224;-75
2023/04/02 02:00:12;;;;;;;4.00;3.60;;;6.60;99.90;;;;;;5073095;28;20371;-75
2023/04/02 02:02:39;;;;;;;5.40;4.60;;;6.50;99.90;;;;;;5073190;28;20227;-75
2023/04/02 02:05:16;;;;;;;3.83;3.13;;;6.50;99.90;;;;;;5058401;28;20262;-75
2023/04/02 02:07:43;;;;;;;3.40;3.10;;;6.50;99.90;;;;;;5053224;28;20230;-77
2023/04/02 02:10:15;;;;;;;3.80;3.28;;;6.40;99.90;;;;;;5054024;28;20229;-77
2023/04/02 02:12:44;;;;;;;3.78;3.50;;;6.30;99.90;;;;;;5064408;28;20251;-75
2023/04/02 02:15:17;;;;;;;7.97;3.85;;;6.30;99.90;;;;;;5074277;28;20224;-75
2023/04/02 02:17:45;;;;;;;3.72;3.30;;;6.20;99.90;;;;;;5073168;28;20306;-75
2023/04/02 02:20:13;;;;;;;4.72;3.83;;;6.20;99.90;;;;;;5066007;28;20243;-75
2023/04/02 02:22:46;;;;;;;3.78;3.47;;;6.20;99.90;;;;;;5069886;28;20593;-78
2023/04/02 02:25:17;;;;;;;3.78;3.35;;;6.20;99.90;;;;;;5075077;28;20293;-75
2023/04/02 02:27:55;;;;;;;4.22;3.83;;;6.20;99.90;;;;;;5072968;28;20232;-76
2023/04/02 02:30:27;;;;;;;3.40;3.10;;;6.10;99.90;;;;;;5072270;28;20759;-76
2023/04/02 02:33:00;;;;;;;3.30;3.00;;;6.20;99.90;;;;;;5073203;28;20864;-76
2023/04/02 02:35:32;;;;;;;3.47;2.92;;;6.20;99.90;;;;;;5073733;28;20224;-75
2023/04/02 02:38:20;;;;;;;6.40;3.70;;;6.10;99.90;;;;;;5066530;28;20372;-75
2023/04/02 02:40:50;;;;;;;3.75;3.45;;;6.20;99.90;;;;;;5069687;28;20310;-76
2023/04/02 02:43:18;;;;;;;5.07;2.95;;;6.20;99.90;;;;;;5069543;28;20560;-76
2023/04/02 02:45:49;;;;;;;3.30;2.85;;;6.20;99.90;;;;;;5073491;28;20274;-76
2023/04/02 02:48:20;;;;;;;6.47;3.38;;;6.20;99.90;;;;;;5073562;28;20232;-76
2023/04/02 02:50:47;;;;;;;2.50;2.30;;;6.20;99.90;;;;;;5072031;28;20231;-77
2023/04/02 02:53:19;;;;;;;6.90;2.88;;;6.20;99.90;;;;;;5073660;28;20220;-76
2023/04/02 02:55:49;;;;;;;3.40;3.10;;;6.20;99.90;;;;;;5072929;28;20223;-76
2023/04/02 02:58:21;;;;;;;3.63;2.47;;;6.30;99.90;;;;;;5073292;28;20243;-76
2023/04/02 03:00:50;;;;;;;7.57;3.95;;;6.20;99.90;;;;;;5072507;28;20311;-75
2023/04/02 03:03:22;;;;;;;4.47;2.70;;;6.20;99.90;;;;;;5073890;28;20227;-75
2023/04/02 03:05:53;;;;;;;3.17;2.88;;;6.20;99.90;;;;;;5073029;28;20690;-77
2023/04/02 03:08:27;;;;;;;3.60;3.30;;;6.20;99.90;;;;;;5073272;28;20728;-77
2023/04/02 03:11:01;;;;;;;3.38;3.00;;;6.30;99.90;;;;;;5072542;28;20327;-76
2023/04/02 03:13:34;;;;;;;2.90;2.70;;;6.30;99.90;;;;;;5063656;28;20654;-76
2023/04/02 03:16:06;;;;;;;3.20;2.88;;;6.30;99.90;;;;;;5072515;28;20243;-75
2023/04/02 03:18:42;;;;;;;3.30;3.00;;;6.30;99.90;;;;;;5073030;28;20236;-76
2023/04/02 03:21:21;;;;;;;3.65;3.35;;;6.30;99.90;;;;;;5043481;28;20317;-75
2023/04/02 03:23:55;;;;;;;3.15;2.95;;;6.30;99.90;;;;;;5052173;28;20600;-76
2023/04/02 03:26:27;;;;;;;6.63;2.72;;;6.30;99.90;;;;;;5053370;28;20499;-76
2023/04/02 03:28:59;;;;;;;6.00;3.13;;;6.30;99.90;;;;;;5051837;28;20323;-76
2023/04/02 03:31:32;;;;;;;3.25;2.95;;;6.30;99.90;;;;;;5052218;28;20327;-76
2023/04/02 03:34:01;;;;;;;2.75;2.53;;;6.30;99.90;;;;;;5052168;28;20578;-76
2023/04/02 03:36:32;;;;;;;6.03;3.15;;;6.30;99.90;;;;;;5052287;28;20308;-75
2023/04/02 03:39:12;;;;;;;4.60;2.55;;;6.30;99.90;;;;;;5052261;28;20550;-75
2023/04/02 03:41:45;;;;;;;5.93;3.10;;;6.40;99.90;;;;;;5052436;28;20220;-76
2023/04/02 03:44:24;;;;;;;2.60;2.40;;;6.40;99.90;;;;;;5052077;28;20275;-78
2023/04/02 03:47:00;;;;;;;3.88;2.85;;;6.40;99.90;;;;;;5051850;28;20236;-78
2023/04/02 03:49:35;;;;;;;4.60;3.30;;;6.40;99.90;;;;;;5036759;28;20316;-74
2023/04/02 03:52:09;;;;;;;3.85;3.05;;;6.40;99.90;;;;;;5036222;28;20234;-76
2023/04/02 03:54:36;;;;;;;4.22;3.67;;;6.50;99.90;;;;;;5030456;28;20318;-77
2023/04/02 03:57:06;;;;;;;3.65;2.58;;;6.40;99.90;;;;;;5039313;28;20221;-76
2023/04/02 03:59:40;;;;;;;4.15;2.30;;;6.50;99.90;;;;;;5038138;28;20274;-77
2023/04/02 04:02:33;;;;;;;3.67;3.30;;;6.50;99.90;;;;;;5030758;28;20312;-78
2023/04/02 04:05:03;;;;;;;3.10;2.60;;;6.50;99.90;;;;;;5032095;28;20332;-77
2023/04/02 04:07:33;;;;;;;4.45;3.35;;;6.50;99.90;;;;;;5034382;28;20284;-77
2023/04/02 04:10:03;;;;;;;3.47;3.13;;;6.50;99.90;;;;;;5036253;28;20233;-77
2023/04/02 04:12:37;;;;;;;4.60;3.00;;;6.40;99.90;;;;;;5055446;28;20746;-77
2023/04/02 04:15:09;;;;;;;3.97;3.58;;;6.40;99.90;;;;;;5057830;28;20299;-76
2023/04/02 04:17:53;;;;;;;3.05;2.85;;;6.40;99.90;;;;;;5056858;28;20231;-77
2023/04/02 04:20:24;;;;;;;5.43;3.83;;;6.40;99.90;;;;;;5056599;28;20224;-76
2023/04/02 04:22:54;;;;;;;7.35;3.10;;;6.40;99.90;;;;;;5056021;28;20221;-77
2023/04/02 04:25:28;;;;;;;3.13;2.83;;;6.40;99.90;;;;;;5056183;28;20727;-76
2023/04/02 04:28:06;;;;;;;3.17;2.40;;;6.40;99.90;;;;;;5055941;28;20220;-76
2023/04/02 04:30:41;;;;;;;3.25;2.80;;;6.40;99.90;;;;;;5055101;28;20224;-76
2023/04/02 04:33:21;;;;;;;4.93;3.20;;;6.40;99.90;;;;;;5055774;28;20224;-77
2023/04/02 04:35:53;;;;;;;3.75;3.45;;;6.40;99.90;;;;;;5055623;28;20577;-77
2023/04/02 04:38:31;;;;;;;4.63;3.42;;;6.30;99.90;;;;;;5055634;28;20236;-77
2023/04/02 04:41:03;;;;;;;2.90;2.70;;;6.30;99.90;;;;;;5074948;28;20310;-78
2023/04/02 04:43:38;;;;;;;5.13;2.97;;;6.30;99.90;;;;;;5075895;28;20289;-79
2023/04/02 04:46:10;;;;;;;5.78;3.72;;;6.20;99.90;;;;;;5066478;28;20215;-77
2023/04/02 04:48:49;;;;;;;3.63;3.33;;;6.20;99.90;;;;;;5080008;28;20233;-76
2023/04/02 04:51:24;;;;;;;3.50;2.80;;;6.20;99.90;;;;;;5074924;28;20227;-76
2023/04/02 04:53:57;;;;;;;6.32;3.58;;;6.30;99.90;;;;;;5078884;28;20223;-76
2023/04/02 04:56:30;;;;;;;5.70;2.88;;;6.30;99.90;;;;;;5074740;28;20216;-77
2023/04/02 04:59:02;;;;;;;4.75;4.18;;;6.40;99.90;;;;;;5075394;28;20281;-77
2023/04/02 05:01:39;;;;;;;3.13;2.92;;;6.40;99.90;;;;;;5073821;28;20219;-77
2023/04/02 05:04:17;;;;;;;3.88;2.92;;;6.50;99.90;;;;;;5073979;28;20258;-76
2023/04/02 05:06:52;;;;;;;3.78;2.72;;;6.50;99.90;;;;;;5075219;28;20314;-76
2023/04/02 05:09:26;;;;;;;3.03;2.65;;;6.50;99.90;;;;;;5075103;28;20223;-77
2023/04/02 05:11:57;;;;;;;4.72;3.00;;;6.60;99.90;;;;;;5075479;28;20362;-77
2023/04/02 05:14:35;;;;;;;3.47;2.83;;;6.70;99.90;;;;;;5074353;28;20228;-76
2023/04/02 05:17:07;;;;;;;3.78;2.55;;;6.70;99.90;;;;;;5063504;28;20549;-77
2023/04/02 05:19:42;;;;;;;4.30;3.05;;;6.70;99.90;;;;;;5074602;28;20220;-76
2023/04/02 05:22:20;;;;;;;5.38;3.38;;;6.80;99.90;;;;;;5074811;28;20215;-77
2023/04/02 05:24:55;;;;;;;3.78;2.50;;;6.80;99.90;;;;;;5074868;28;20247;-75
2023/04/02 05:27:31;;;;;;;4.78;2.90;;;6.90;99.90;;;;;;5074926;28;20239;-75
2023/04/02 05:30:05;;;;;;;2.42;2.33;;;6.90;99.90;;;;;;5074172;28;20219;-77
2023/04/02 05:32:36;;;;;;;2.80;2.60;;;6.90;99.90;;;;;;5075054;28;20224;-76
2023/04/02 05:35:07;;;;;;;3.55;2.25;;;7.00;99.90;;;;;;5073885;28;20616;-76
2023/04/02 05:37:39;;;;;;;6.30;2.85;;;7.00;99.90;;;;;;5074740;28;20311;-76
2023/04/02 05:40:15;;;;;;;3.88;3.50;;;7.00;99.90;;;;;;5073685;28;20281;-76
2023/04/02 05:42:45;;;;;;;7.15;6.55;;;7.00;99.90;;;;;;5074849;28;20224;-76
2023/04/02 05:45:26;;;;;;;8.60;7.90;;;7.10;99.90;;;;;;5073854;28;20310;-76
2023/04/02 05:47:58;;;;;;;7.20;4.70;;;7.10;99.90;;;;;;5073814;28;20227;-76
2023/04/02 05:50:30;;;;;;;4.93;3.85;;;7.20;99.90;;;;;;5074398;28;20228;-76
2023/04/02 05:53:06;;;;;;;6.00;3.00;;;7.10;99.90;;;;;;5074181;28;20248;-76
2023/04/02 05:55:43;;;;;;;2.53;2.10;;;7.10;99.90;;;;;;5074715;28;20627;-77
2023/04/02 05:58:20;;;;;;;4.85;2.80;;;7.10;99.90;;;;;;5073304;28;20661;-77
2023/04/02 06:01:12;;;;;;;6.03;3.13;;;7.10;99.90;;;;;;5073280;28;20302;-77
2023/04/02 06:03:46;;;;;;;3.42;2.78;;;7.10;99.90;;;;;;5074272;28;20363;-76
2023/04/02 06:06:21;;;;;;;4.70;2.92;;;7.00;99.90;;;;;;5074386;28;20545;-76
2023/04/02 06:08:55;;;;;;;3.08;2.53;;;7.10;99.90;;;;;;5073900;28;20731;-76
2023/04/02 06:11:28;;;;;;;4.88;2.78;;;7.10;99.90;;;;;;5073320;28;20303;-76
2023/04/02 06:13:55;;;;;;;4.72;2.60;;;7.10;99.90;;;;;;5073601;28;20231;-76
2023/04/02 06:16:26;;;;;;;3.05;2.75;;;7.20;99.90;;;;;;5073919;28;20342;-76
2023/04/02 06:18:54;;;;;;;4.70;2.50;;;7.20;99.90;;;;;;5073152;28;20228;-77
2023/04/02 06:21:23;;;;;;;4.68;2.67;;;7.20;99.90;;;;;;5074142;28;20574;-76
2023/04/02 06:23:55;;;;;;;2.95;2.30;;;7.20;99.90;;;;;;5073478;28;20223;-76
2023/04/02 06:26:26;;;;;;;6.13;2.72;;;7.30;99.90;;;;;;5073778;28;20232;-76
2023/04/02 06:29:01;;;;;;;2.42;2.22;;;7.20;99.90;;;;;;5073406;28;20236;-76
2023/04/02 06:31:33;;;;;;;3.67;2.40;;;7.30;99.90;;;;;;5073522;28;20235;-76
2023/04/02 06:34:16;;;;;;;2.97;2.03;;;7.30;99.90;;;;;;5073351;28;20216;-77
2023/04/02 06:36:45;;;;;;;3.22;2.28;;;7.40;99.90;;;;;;5073156;28;20364;-76
2023/04/02 06:39:19;;;;;;;2.00;1.80;;;7.40;99.90;;;;;;5073644;28;20224;-76
2023/04/02 06:41:46;;;;;;;4.45;2.50;;;7.50;99.90;;;;;;5073088;28;20248;-76
2023/04/02 06:44:21;;;;;;;2.08;1.75;;;7.50;99.90;;;;;;5073059;28;20240;-76
2023/04/02 06:46:50;;;;;;;11.52;6.60;;;7.60;99.90;;;;;;5072996;28;20223;-76
2023/04/02 06:49:21;;;;;;;4.25;2.30;;;7.60;99.90;;;;;;5073252;28;20228;-76
2023/04/02 06:51:54;;;;;;;2.33;1.65;;;7.60;99.90;;;;;;5063284;28;20239;-77
2023/04/02 06:54:21;;;;;;;2.33;1.80;;;7.60;99.90;;;;;;5072832;28;20235;-76
2023/04/02 06:56:50;;;;;;;2.25;2.05;;;7.70;99.90;;;;;;5072194;28;20224;-77
2023/04/02 06:59:19;;;;;;;3.67;2.38;;;7.70;99.90;;;;;;5073613;28;20224;-76
2023/04/02 07:01:51;;;;;;;3.50;2.10;;;7.70;99.90;;;;;;5072485;28;20231;-76
2023/04/02 07:04:22;;;;;;;3.60;1.50;;;7.80;99.90;;;;;;5067781;28;20579;-76
2023/04/02 07:06:50;;;;;;;1.92;1.83;;;7.80;99.90;;;;;;5073676;28;20248;-75
2023/04/02 07:09:17;;;;;;;2.05;1.73;;;7.80;99.90;;;;;;5073034;28;20254;-75
2023/04/02 07:11:46;;;;;;;2.95;1.33;;;7.80;99.90;;;;;;5072280;28;20239;-76
2023/04/02 07:14:13;;;;;;;2.10;1.52;;;7.80;99.90;;;;;;5072156;28;20220;-75
2023/04/02 07:16:41;;;;;;;5.00;1.80;;;7.80;99.90;;;;;;5072578;28;20300;-75
2023/04/02 07:19:20;;;;;;;3.25;1.88;;;7.80;99.90;;;;;;5071885;28;20228;-77
2023/04/02 07:21:48;;;;;;;2.65;2.25;;;7.70;99.90;;;;;;5070709;28;20228;-77
2023/04/02 07:24:16;;;;;;;1.95;1.75;;;7.80;99.90;;;;;;5080167;28;20231;-75
2023/04/02 07:26:46;;;;;;;2.38;1.60;;;7.90;99.90;;;;;;5072574;28;20224;-76
2023/04/02 07:29:16;;;;;;;3.75;1.70;;;7.90;99.90;;;;;;5071250;28;20232;-74
2023/04/02 07:31:43;;;;;;;4.03;2.35;;;8.00;99.90;;;;;;5076726;28;20243;-74
2023/04/02 07:34:11;;;;;;;3.85;2.00;;;8.00;99.90;;;;;;5073260;28;20212;-75
2023/04/02 07:36:38;;;;;;;7.35;3.60;;;8.10;99.90;;;;;;5073316;28;20316;-76
2023/04/02 07:39:05;;;;;;;3.08;2.78;;;8.20;99.90;;;;;;5072177;28;20224;-76
2023/04/02 07:41:34;;;;;;;2.88;2.58;;;8.20;99.90;;;;;;5072589;28;20228;-76
2023/04/02 07:44:01;;;;;;;4.32;2.03;;;8.20;99.90;;;;;;5072359;28;20228;-76
2023/04/02 07:46:28;;;;;;;4.47;1.80;;;8.30;99.90;;;;;;5072730;28;20273;-76
2023/04/02 07:48:56;;;;;;;2.00;1.90;;;8.20;99.90;;;;;;5072279;28;20559;-76
2023/04/02 07:51:29;;;;;;;2.97;2.25;;;8.30;99.90;;;;;;5072461;28;20235;-76
2023/04/02 07:53:56;;;;;;;6.25;3.85;;;8.30;99.90;;;;;;5072762;28;20637;-76
2023/04/02 07:56:25;;;;;;;5.38;3.42;;;8.30;99.90;;;;;;5072385;28;20709;-76
2023/04/02 07:58:53;;;;;;;2.70;2.40;;;8.30;99.90;;;;;;5072268;28;20231;-76
2023/04/02 08:01:22;;;;;;;2.95;2.53;;;8.20;99.90;;;;;;5072727;28;20677;-76
2023/04/02 08:03:50;;;;;;;3.10;2.60;;;8.20;99.90;;;;;;5072451;28;20226;-76
2023/04/02 08:06:17;;;;;;;2.40;2.20;;;8.10;99.90;;;;;;5072182;28;20609;-76
2023/04/02 08:08:48;;;;;;;3.28;2.10;;;8.10;99.90;;;;;;5072471;28;20224;-76
2023/04/02 08:11:15;;;;;;;3.00;2.10;;;8.20;99.90;;;;;;5071782;28;20733;-77
2023/04/02 08:13:43;;;;;;;2.53;1.75;;;8.20;99.90;;;;;;5072389;28;20231;-76
2023/04/02 08:16:14;;;;;;;4.57;2.83;;;8.20;99.90;;;;;;5073044;28;20227;-76
2023/04/02 08:18:41;;;;;;;4.25;2.58;;;8.30;99.90;;;;;;5076482;28;20285;-77
2023/04/02 08:21:12;;;;;;;2.95;1.85;;;8.20;99.90;;;;;;5067945;28;20231;-76
2023/04/02 08:23:39;;;;;;;3.25;1.75;;;8.30;99.90;;;;;;5074323;28;20250;-76
2023/04/02 08:26:06;;;;;;;4.38;2.40;;;8.30;99.90;;;;;;5076510;28;20220;-77
2023/04/02 08:28:39;;;;;;;4.65;2.40;;;8.30;99.90;;;;;;5085488;28;20223;-76
2023/04/02 08:31:09;;;;;;;1.83;1.48;;;8.40;99.90;;;;;;5086261;28;20230;-77
2023/04/02 08:33:38;;;;;;;2.95;1.80;;;8.50;99.90;;;;;;5078078;28;20220;-79
2023/04/02 08:36:06;;;;;;;2.83;1.90;;;8.50;99.90;;;;;;5076433;28;20216;-76
2023/04/02 08:38:33;;;;;;;3.65;2.60;;;8.50;99.90;;;;;;5074434;28;20224;-78
2023/04/02 08:41:02;;;;;;;2.80;2.03;;;8.60;99.90;;;;;;5073636;28;20256;-75
2023/04/02 08:43:51;;;;;;;1.88;1.75;;;8.60;99.90;;;;;;5072146;28;20224;-76
2023/04/02 08:46:31;;;;;;;3.22;1.98;;;8.60;99.90;;;;;;5072169;28;20224;-77
2023/04/02 08:49:02;;;;;;;2.17;1.70;;;8.70;99.90;;;;;;5072115;28;20566;-77
2023/04/02 08:51:35;;;;;;;3.10;1.40;;;8.70;99.90;;;;;;5072603;28;20220;-76
2023/04/02 08:54:07;;;;;;;2.97;2.03;;;8.70;99.90;;;;;;5073367;28;20227;-76
2023/04/02 08:56:46;;;;;;;4.05;2.40;;;8.60;99.90;;;;;;5075769;28;20303;-76
2023/04/02 08:59:24;;;;;;;2.63;1.67;;;8.60;99.90;;;;;;5075998;28;20245;-75
2023/04/02 09:02:00;;;;;;;2.45;1.58;;;8.60;99.90;;;;;;5076448;28;20261;-77
2023/04/02 09:04:29;;;;;;;5.78;1.85;;;8.50;99.90;;;;;;5075454;28;20220;-77
2023/04/02 09:06:59;;;;;;;3.00;1.83;;;8.50;99.90;;;;;;5075424;28;20220;-77
2023/04/02 09:09:27;;;;;;;2.88;2.10;;;8.40;99.90;;;;;;5075047;28;20230;-77
2023/04/02 09:11:59;;;;;;;2.80;2.00;;;8.30;99.90;;;;;;5075979;28;20247;-75
2023/04/02 09:14:44;;;;;;;2.03;1.88;;;8.30;99.90;;;;;;5075264;28;20219;-76
2023/04/02 09:17:20;;;;;;;4.03;1.85;;;8.40;99.90;;;;;;5074677;28;20250;-77
2023/04/02 09:19:56;;;;;;;2.70;1.60;;;8.30;99.30;;;;;;5074885;28;20608;-77
2023/04/02 09:22:26;;;;;;;5.63;1.67;;;8.30;99.20;;;;;;5074962;28;20223;-77
2023/04/02 09:24:54;;;;;;;4.80;2.45;;;8.40;99.60;;;;;;5075695;28;20299;-76
2023/04/02 09:27:24;;;;;;;4.03;2.20;;;8.50;99.70;;;;;;5074487;28;20254;-76
2023/04/02 09:29:55;;;;;;;3.22;1.80;;;8.40;98.80;;;;;;5075115;28;20220;-78
2023/04/02 09:32:48;;;;;;;4.28;1.92;;;8.50;98.40;;;;;;5075383;28;20232;-78
2023/04/02 09:35:22;;;;;;;3.13;1.35;;;8.50;98.20;;;;;;5071039;28;20231;-77
2023/04/02 09:38:31;;;;;;;2.53;1.70;;;8.50;98.30;;;;;;5075711;28;20227;-77
2023/04/02 09:41:00;;;;;;;4.45;2.20;;;8.50;97.50;;;;;;5074061;28;20607;-77
2023/04/02 09:43:30;;;;;;;1.67;1.58;;;8.60;97.10;;;;;;5075479;28;20235;-77
2023/04/02 09:46:01;;;;;;;3.80;1.52;;;8.60;97.50;;;;;;5074290;28;20242;-77
2023/04/02 09:48:36;;;;;;;5.13;2.17;;;8.70;98.00;;;;;;5069329;28;20272;-76
2023/04/02 09:51:15;;;;;;;2.45;1.60;;;8.80;97.30;;;;;;5082442;28;20219;-76
2023/04/02 09:53:46;;;;;;;5.45;3.65;;;8.90;97.20;;;;;;5078946;28;20523;-76
2023/04/02 09:56:20;;;;;;;7.85;4.65;;;8.90;96.30;;;;;;5073801;28;20258;-77
2023/04/02 09:59:04;;;;;;;6.22;2.58;;;8.90;96.20;;;;;;5074505;28;20234;-77
2023/04/02 10:01:37;;;;;;;4.85;3.40;;;8.90;95.90;;;;;;5074852;28;20220;-77
2023/04/02 10:04:15;;;;;;;7.38;4.43;;;9.00;95.70;;;;;;5074263;28;20563;-77
2023/04/02 10:06:52;;;;;;;7.68;3.95;;;9.00;95.80;;;;;;5072931;28;20228;-78
2023/04/02 10:09:27;;;;;;;2.72;2.45;;;9.10;96.10;;;;;;5074596;28;20631;-76
2023/04/02 10:11:56;;;;;;;3.90;2.90;;;9.10;96.10;;;;;;5072725;28;20231;-77
2023/04/02 10:14:26;;;;;;;5.22;3.70;;;9.20;96.70;;;;;;5079933;28;20227;-77
2023/04/02 10:16:57;;;;;;;3.30;2.05;;;9.30;96.50;;;;;;5073554;28;20232;-77
2023/04/02 10:19:29;;;;;;;4.28;2.80;;;9.40;96.20;;;;;;5072911;28;20285;-76
2023/04/02 10:22:00;;;;;;;2.97;2.65;;;9.50;95.90;;;;;;5073459;28;20315;-77
2023/04/02 10:24:29;;;;;;;4.15;2.88;;;9.60;95.70;;;;;;5074483;28;20234;-78
2023/04/02 10:27:16;;;;;;;6.38;3.38;;;9.70;95.20;;;;;;5073939;28;20228;-77
2023/04/02 10:30:01;;;;;;;5.13;4.00;;;9.70;94.10;;;;;;5072684;28;20573;-77
2023/04/02 10:32:38;;;;;;;5.68;2.15;;;9.60;94.50;;;;;;5073758;28;20285;-77
2023/04/02 10:35:14;;;;;;;4.25;2.95;;;9.70;94.50;;;;;;5074018;28;20231;-77
2023/04/02 10:37:55;;;;;;;4.03;2.50;;;9.60;94.40;;;;;;5073263;28;20220;-77
2023/04/02 10:40:28;;;;;;;6.55;4.00;;;9.60;94.00;;;;;;5073114;28;20689;-76
2023/04/02 10:43:42;;;;;;;5.97;2.65;;;9.60;93.90;;;;;;5065060;28;20219;-77
2023/04/02 10:46:19;;;;;;;4.57;3.05;;;9.60;93.30;;;;;;5018279;28;20229;-77
2023/04/02 10:48:55;;;;;;;7.65;3.10;;;9.60;93.60;;;;;;5073093;28;20227;-77
2023/04/02 10:51:34;;;;;;;10.43;5.70;;;9.60;93.80;;;;;;5073018;28;20231;-77
2023/04/02 10:54:13;;;;;;;6.85;4.32;;;9.60;93.90;;;;;;5073733;28;20215;-77
2023/04/02 10:56:43;;;;;;;8.43;4.85;;;9.60;94.00;;;;;;5065465;28;20220;-77
2023/04/02 10:59:17;;;;;;;9.55;5.10;;;9.70;94.20;;;;;;5073172;28;20216;-77
2023/04/02 11:01:47;;;;;;;5.45;3.20;;;9.80;94.30;;;;;;5072976;28;20216;-77
2023/04/02 11:04:21;;;;;;;8.18;5.00;;;9.90;94.70;;;;;;5072605;28;20311;-76
2023/04/02 11:06:53;;;;;;;8.70;6.15;;;9.90;94.40;;;;;;5072753;28;20235;-77
2023/04/02 11:09:26;;;;;;;9.25;5.85;;;10.10;94.40;;;;;;5072858;28;20227;-77
2023/04/02 11:11:57;;;;;;;5.50;3.45;;;10.20;94.30;;;;;;5073238;28;20220;-77
2023/04/02 11:14:26;;;;;;;9.90;5.55;;;10.20;93.60;;;;;;5072694;28;20224;-76
2023/04/02 11:16:57;;;;;;;2.78;2.30;;;10.10;93.70;;;;;;5072518;28;20622;-76
2023/04/02 11:19:27;;;;;;;4.35;2.80;;;10.10;93.20;;;;;;5073188;28;20240;-77
2023/04/02 11:21:58;;;;;;;3.13;2.20;;;10.20;93.20;;;;;;5072186;28;20242;-77
2023/04/02 11:24:44;;;;;;;2.35;1.55;;;10.20;93.50;;;;;;5071447;28;20242;-78
2023/04/02 11:27:28;;;;;;;6.30;2.05;;;10.20;92.20;;;;;;5072363;28;20611;-77
2023/04/02 11:30:05;;;;;;;2.72;1.90;;;10.10;91.70;;;;;;5072883;28;20299;-76
2023/04/02 11:32:37;;;;;;;5.03;1.75;;;10.10;91.70;;;;;;5071961;28;20224;-77
2023/04/02 11:35:27;;;;;;;4.55;1.85;;;10.10;90.90;;;;;;5071807;28;20220;-77
2023/04/02 11:37:57;;;;;;;2.53;1.80;;;10.00;90.60;;;;;;5072887;28;20216;-77
2023/04/02 11:40:49;;;;;;;5.75;1.75;;;10.00;91.10;;;;;;5075115;28;20228;-76
2023/04/02 11:44:00;;;;;;;4.20;1.60;;;9.90;92.40;;;;;;5061906;28;20229;-77
2023/04/02 11:46:47;;;;;;;3.35;1.70;;;9.80;92.60;;;;;;5078074;28;20274;-76
2023/04/02 11:49:38;;;;;;;5.32;1.80;;;9.80;92.80;;;;;;5072151;28;20319;-78
2023/04/02 11:52:20;;;;;;;1.80;1.70;;;9.80;92.50;;;;;;5072465;28;20227;-77
2023/04/02 11:55:00;;;;;;;4.38;2.25;;;9.80;92.60;;;;;;5072408;28;20223;-76
2023/04/02 11:57:47;;;;;;;3.85;1.70;;;9.80;92.70;;;;;;5053347;28;20304;-78
2023/04/02 12:00:33;;;;;;;4.80;2.70;;;9.90;92.90;;;;;;5051091;28;20228;-77
2023/04/02 12:03:24;;;;;;;2.85;2.40;;;9.90;92.70;;;;;;5057148;28;20231;-76
2023/04/02 12:05:59;;;;;;;5.65;3.45;;;10.00;92.40;;;;;;5072168;28;20220;-77
2023/04/02 12:08:38;;;;;;;7.13;4.13;;;10.00;92.30;;;;;;5072795;28;20219;-77
2023/04/02 12:11:10;;;;;;;7.40;3.40;;;10.10;92.60;;;;;;5072656;28;20238;-77
2023/04/02 12:13:57;;;;;;;3.78;1.83;;;10.10;92.60;;;;;;5072684;28;20259;-77
2023/04/02 12:16:30;;;;;;;2.42;1.63;;;10.20;92.50;;;;;;5073030;28;20282;-76
2023/04/02 12:18:58;;;;;;;2.72;2.47;;;10.20;92.20;;;;;;5052996;28;20224;-77
2023/04/02 12:21:26;;;;;;;6.65;2.15;;;10.30;92.40;;;;;;5051045;28;20235;-77
2023/04/02 12:23:56;;;;;;;1.83;1.70;;;10.40;92.40;;;;;;5052616;28;20612;-77
2023/04/02 12:26:36;;;;;;;2.47;2.20;;;10.50;91.70;;;;;;5052849;28;20591;-78
2023/04/02 12:29:19;;;;;;;2.80;1.65;;;10.50;90.60;;;;;;5054331;28;20228;-77
2023/04/02 12:31:50;;;;;;;3.45;1.88;;;10.50;90.00;;;;;;5056533;28;20285;-77
2023/04/02 12:34:19;;;;;;;3.20;2.13;;;10.50;90.30;;;;;;5056090;28;20656;-76
2023/04/02 12:37:01;;;;;;;3.60;1.50;;;10.60;90.00;;;;;;5056328;28;20230;-77
2023/04/02 12:39:29;;;;;;;4.60;1.60;;;10.60;90.10;;;;;;5056627;28;20225;-77
2023/04/02 12:41:57;;;;;;;3.28;2.10;;;10.60;89.60;;;;;;5055337;28;20642;-77
2023/04/02 12:44:28;;;;;;;3.78;1.95;;;10.70;90.40;;;;;;5056283;28;20243;-76
2023/04/02 12:46:56;;;;;;;3.63;1.98;;;10.60;89.30;;;;;;5055132;28;20220;-76
2023/04/02 12:49:36;;;;;;;3.15;1.60;;;10.60;89.80;;;;;;5055990;28;20620;-76
2023/04/02 12:52:11;;;;;;;6.70;2.03;;;10.60;88.00;;;;;;5055425;28;20235;-76
2023/04/02 12:54:48;;;;;;;2.95;1.40;;;10.70;88.50;;;;;;5055912;28;20224;-77
2023/04/02 12:57:38;;;;;;;3.15;1.80;;;10.70;87.80;;;;;;5056332;28;20551;-76
2023/04/02 13:00:33;;;;;;;2.45;1.30;;;10.70;87.00;;;;;;5056162;28;20342;-78
2023/04/02 13:03:02;;;;;;;2.50;1.40;;;10.80;87.50;;;;;;5060424;28;20308;-76
2023/04/02 13:05:35;;;;;;;4.25;1.95;;;10.90;87.00;;;;;;5076312;28;20638;-77
2023/04/02 13:08:04;;;;;;;4.40;1.80;;;11.00;87.30;;;;;;5076243;28;20286;-77
2023/04/02 13:10:31;;;;;;;3.35;1.52;;;11.00;87.70;;;;;;5075417;28;20224;-78
2023/04/02 13:13:00;;;;;;;4.13;1.48;;;11.10;89.20;;;;;;5076025;28;20239;-77
2023/04/02 13:15:30;;;;;;;2.38;1.50;;;11.10;88.50;;;;;;5075130;28;20690;-76
2023/04/02 13:18:17;;;;;;;2.97;1.40;;;11.10;87.60;;;;;;5076278;28;20556;-75
2023/04/02 13:20:55;;;;;;;3.28;1.25;;;11.10;86.90;;;;;;5076072;28;20235;-76
2023/04/02 13:23:32;;;;;;;5.35;1.67;;;11.00;87.10;;;;;;5066030;28;20299;-77
2023/04/02 13:26:01;;;;;;;2.97;1.65;;;11.00;85.80;;;;;;5074048;28;20670;-78
2023/04/02 13:28:28;;;;;;;2.60;1.27;;;10.90;85.40;;;;;;5075682;28;20307;-78
2023/04/02 13:30:55;;;;;;;4.28;1.73;;;10.90;86.30;;;;;;5075421;28;20220;-76